Time;durP1;ratioP1;P1;durP2;ratioP2;P2;SDS_P1;SDS_P2;PMS_P1;PMS_P2;Temp;Humidity;BMP_temperature;BMP_pressure;BME280_temperature;BME280_humidity;BME280_pressure;Samples;Min_cycle;Max_cycle;Signal;HPM_P1;HPM_P2
2022/12/29 00:02:23;;;;;;;0.20;0.20;;;;;;;;;;6257907;22;20076;-76
2022/12/29 00:04:50;;;;;;;0.35;0.35;;;;;;;;;;6259620;22;20027;-75
2022/12/29 00:07:17;;;;;;;0.10;0.10;;;;;;;;;;6259757;22;20051;-76
2022/12/29 00:09:43;;;;;;;0.10;0.10;;;;;;;;;;6259052;22;20049;-76
2022/12/29 00:12:09;;;;;;;0.10;0.10;;;;;;;;;;6259636;22;20024;-76
2022/12/29 00:17:20;;;;;;;0.10;0.10;;;;;;;;;;6259946;22;20026;-75
2022/12/29 00:36:37;;;;;;;0.10;0.10;;;;;;;;;;6259179;22;20047;-76
2022/12/29 00:44:36;;;;;;;0.10;0.10;;;;;;;;;;6258308;22;20347;-76
2022/12/29 00:47:04;;;;;;;0.17;0.17;;;;;;;;;;6261018;22;20374;-76
2022/12/29 00:49:30;;;;;;;0.17;0.17;;;;;;;;;;6233838;22;20455;-75
2022/12/29 00:51:57;;;;;;;0.10;0.10;;;;;;;;;;6260627;22;20058;-76
2022/12/29 00:54:23;;;;;;;0.15;0.13;;;;;;;;;;6259632;22;20016;-76
2022/12/29 00:56:50;;;;;;;0.10;0.10;;;;;;;;;;6258466;22;20019;-76
2022/12/29 00:59:17;;;;;;;0.10;0.10;;;;;;;;;;6259133;22;20023;-75
2022/12/29 01:01:43;;;;;;;0.30;0.30;;;;;;;;;;6258890;22;20082;-76
2022/12/29 01:04:10;;;;;;;0.10;0.10;;;;;;;;;;6259908;22;20024;-76
2022/12/29 01:06:37;;;;;;;0.10;0.10;;;;;;;;;;6234970;22;20027;-76
2022/12/29 01:11:48;;;;;;;0.10;0.10;;;;;;;;;;6258890;22;20074;-76
2022/12/29 01:14:15;;;;;;;0.10;0.10;;;;;;;;;;6259833;22;20438;-75
2022/12/29 01:16:41;;;;;;;0.10;0.10;;;;;;;;;;6259596;22;20030;-76
2022/12/29 01:19:07;;;;;;;0.10;0.10;;;;;;;;;;6261476;22;20015;-76
2022/12/29 01:21:33;;;;;;;0.20;0.20;;;;;;;;;;6258919;22;20020;-75
2022/12/29 01:23:59;;;;;;;0.10;0.10;;;;;;;;;;6261316;22;20026;-76
2022/12/29 01:26:25;;;;;;;0.10;0.10;;;;;;;;;;6259448;22;20022;-76
2022/12/29 01:28:51;;;;;;;0.10;0.10;;;;;;;;;;6259642;22;20062;-76
2022/12/29 01:31:17;;;;;;;0.63;0.63;;;;;;;;;;6258568;22;20117;-76
2022/12/29 01:33:44;;;;;;;0.10;0.10;;;;;;;;;;6259569;22;20016;-76
2022/12/29 01:36:12;;;;;;;0.10;0.10;;;;;;;;;;6258802;22;20015;-76
2022/12/29 01:38:38;;;;;;;0.10;0.10;;;;;;;;;;6258920;22;20020;-76
2022/12/29 01:41:05;;;;;;;0.10;0.10;;;;;;;;;;6259141;22;20047;-75
2022/12/29 01:43:40;;;;;;;0.10;0.10;;;;;;;;;;6260751;22;20023;-76
2022/12/29 01:46:12;;;;;;;0.22;0.22;;;;;;;;;;6258108;22;20027;-75
2022/12/29 01:48:38;;;;;;;0.10;0.10;;;;;;;;;;6260219;22;20123;-76
2022/12/29 01:51:04;;;;;;;0.13;0.13;;;;;;;;;;6261485;22;20023;-76
2022/12/29 01:53:32;;;;;;;0.10;0.10;;;;;;;;;;6261036;22;20011;-75
2022/12/29 01:56:00;;;;;;;0.13;0.13;;;;;;;;;;6261470;22;20024;-76
2022/12/29 01:58:30;;;;;;;0.10;0.10;;;;;;;;;;6232174;22;20043;-75
2022/12/29 02:00:56;;;;;;;0.10;0.10;;;;;;;;;;6260438;22;20027;-76
2022/12/29 02:03:23;;;;;;;0.10;0.10;;;;;;;;;;6234351;22;20022;-76
2022/12/29 02:05:53;;;;;;;0.10;0.10;;;;;;;;;;6263199;22;20054;-75
2022/12/29 02:08:20;;;;;;;0.10;0.10;;;;;;;;;;6260162;22;20450;-76
2022/12/29 02:10:47;;;;;;;0.10;0.10;;;;;;;;;;6260674;22;20027;-75
2022/12/29 02:13:17;;;;;;;0.10;0.10;;;;;;;;;;6260781;22;20019;-75
2022/12/29 02:15:43;;;;;;;0.10;0.10;;;;;;;;;;6260489;22;20031;-76
2022/12/29 02:18:15;;;;;;;0.20;0.20;;;;;;;;;;6260856;22;20081;-76
2022/12/29 02:21:10;;;;;;;0.10;0.10;;;;;;;;;;6260589;22;20102;-76
2022/12/29 02:23:48;;;;;;;0.10;0.10;;;;;;;;;;6128534;22;20021;-76
2022/12/29 02:26:33;;;;;;;0.10;0.10;;;;;;;;;;6235302;22;20541;-76
2022/12/29 02:28:59;;;;;;;0.10;0.10;;;;;;;;;;6262200;22;20372;-76
2022/12/29 02:31:30;;;;;;;0.10;0.10;;;;;;;;;;6260550;22;20020;-76
2022/12/29 02:34:15;;;;;;;0.10;0.10;;;;;;;;;;6260560;22;20039;-75
2022/12/29 02:36:50;;;;;;;0.10;0.10;;;;;;;;;;6259787;22;20023;-76
2022/12/29 02:39:24;;;;;;;0.10;0.10;;;;;;;;;;6261415;22;20024;-76
2022/12/29 02:42:08;;;;;;;0.32;0.32;;;;;;;;;;6260040;22;20347;-76
2022/12/29 02:44:34;;;;;;;0.10;0.10;;;;;;;;;;6260192;22;20390;-76
2022/12/29 02:47:02;;;;;;;0.10;0.10;;;;;;;;;;6261379;22;20491;-76
2022/12/29 02:49:36;;;;;;;0.10;0.10;;;;;;;;;;6260217;22;20023;-76
2022/12/29 02:52:17;;;;;;;0.10;0.10;;;;;;;;;;6262139;22;20358;-76
2022/12/29 02:54:43;;;;;;;0.10;0.10;;;;;;;;;;6259319;22;20015;-76
2022/12/29 02:57:21;;;;;;;0.20;0.20;;;;;;;;;;6260339;22;20015;-76
2022/12/29 02:59:54;;;;;;;0.10;0.10;;;;;;;;;;6260024;22;20431;-76
2022/12/29 03:02:29;;;;;;;0.10;0.10;;;;;;;;;;6259253;22;20076;-76
2022/12/29 03:05:17;;;;;;;0.10;0.10;;;;;;;;;;6259557;22;20121;-75
2022/12/29 03:08:02;;;;;;;0.10;0.10;;;;;;;;;;6260991;22;20058;-75
2022/12/29 03:10:31;;;;;;;0.70;0.70;;;;;;;;;;6260064;22;20016;-76
2022/12/29 03:16:03;;;;;;;0.10;0.10;;;;;;;;;;6260594;22;20132;-76
2022/12/29 03:18:35;;;;;;;0.22;0.22;;;;;;;;;;6263359;22;20020;-76
2022/12/29 03:21:04;;;;;;;0.08;0.08;;;;;;;;;;6261578;22;20019;-76
2022/12/29 03:23:30;;;;;;;0.13;0.13;;;;;;;;;;6259789;22;20061;-76
2022/12/29 03:25:58;;;;;;;0.10;0.10;;;;;;;;;;6259112;22;20019;-76
2022/12/29 03:28:26;;;;;;;0.10;0.10;;;;;;;;;;6260353;22;20533;-76
2022/12/29 03:30:53;;;;;;;0.38;0.38;;;;;;;;;;6259090;22;20520;-76
2022/12/29 03:33:23;;;;;;;0.10;0.10;;;;;;;;;;6259362;22;20019;-76
2022/12/29 03:35:51;;;;;;;0.10;0.10;;;;;;;;;;6259475;22;20033;-76
2022/12/29 03:38:40;;;;;;;0.10;0.10;;;;;;;;;;6260213;22;20119;-77
2022/12/29 03:41:08;;;;;;;0.10;0.10;;;;;;;;;;6239755;22;20855;-76
2022/12/29 03:43:34;;;;;;;0.10;0.10;;;;;;;;;;6260837;22;20086;-76
2022/12/29 03:46:00;;;;;;;0.10;0.10;;;;;;;;;;6260069;22;20020;-76
2022/12/29 03:48:26;;;;;;;0.20;0.20;;;;;;;;;;6262219;22;20108;-76
2022/12/29 03:50:52;;;;;;;0.20;0.20;;;;;;;;;;6258284;22;20026;-76
2022/12/29 03:53:18;;;;;;;0.10;0.10;;;;;;;;;;6260726;22;20019;-76
2022/12/29 03:55:44;;;;;;;0.10;0.10;;;;;;;;;;6259486;22;20030;-76
2022/12/29 03:58:10;;;;;;;0.20;0.20;;;;;;;;;;6261241;22;20069;-76
2022/12/29 04:00:36;;;;;;;0.20;0.20;;;;;;;;;;6259812;22;20023;-76
2022/12/29 04:03:03;;;;;;;0.10;0.10;;;;;;;;;;6233657;22;20026;-76
2022/12/29 04:05:29;;;;;;;0.10;0.10;;;;;;;;;;6258388;22;20477;-76
2022/12/29 04:07:55;;;;;;;0.20;0.20;;;;;;;;;;6234037;22;20019;-76
2022/12/29 04:10:21;;;;;;;0.10;0.10;;;;;;;;;;6258259;22;20069;-76
2022/12/29 04:12:47;;;;;;;0.10;0.10;;;;;;;;;;6257779;22;20094;-76
2022/12/29 04:15:13;;;;;;;0.10;0.10;;;;;;;;;;6261036;22;20029;-76
2022/12/29 04:17:39;;;;;;;0.10;0.10;;;;;;;;;;6260593;22;20019;-76
2022/12/29 04:22:57;;;;;;;0.10;0.10;;;;;;;;;;6258726;22;20534;-76
2022/12/29 04:25:23;;;;;;;0.10;0.10;;;;;;;;;;6259697;22;20420;-77
2022/12/29 04:27:49;;;;;;;0.10;0.10;;;;;;;;;;6258957;22;20019;-76
2022/12/29 04:30:15;;;;;;;0.10;0.10;;;;;;;;;;6234644;22;20015;-76
2022/12/29 04:32:41;;;;;;;0.10;0.10;;;;;;;;;;6258608;22;20058;-76
2022/12/29 04:35:08;;;;;;;0.10;0.10;;;;;;;;;;6259916;22;20024;-76
2022/12/29 04:37:34;;;;;;;0.10;0.10;;;;;;;;;;6260548;22;20436;-77
2022/12/29 04:40:00;;;;;;;0.10;0.10;;;;;;;;;;6291193;22;20356;-76
2022/12/29 04:42:26;;;;;;;0.10;0.10;;;;;;;;;;6264270;22;20062;-76
2022/12/29 04:44:52;;;;;;;0.10;0.10;;;;;;;;;;6264862;22;20072;-76
2022/12/29 04:47:18;;;;;;;0.10;0.10;;;;;;;;;;6265030;22;20145;-76
2022/12/29 04:49:44;;;;;;;0.10;0.10;;;;;;;;;;6264448;22;20287;-76
2022/12/29 04:52:10;;;;;;;0.10;0.10;;;;;;;;;;6264522;22;20015;-75
2022/12/29 04:54:36;;;;;;;0.10;0.10;;;;;;;;;;6264032;22;20019;-75
2022/12/29 04:57:02;;;;;;;0.10;0.10;;;;;;;;;;6264083;22;20019;-76
2022/12/29 04:59:28;;;;;;;0.10;0.10;;;;;;;;;;6264227;22;20042;-75
2022/12/29 05:01:54;;;;;;;0.10;0.10;;;;;;;;;;6291437;22;20026;-76
2022/12/29 05:04:20;;;;;;;0.10;0.10;;;;;;;;;;6262339;22;20019;-76
2022/12/29 05:06:46;;;;;;;0.10;0.10;;;;;;;;;;6288166;22;20125;-76
2022/12/29 05:09:12;;;;;;;0.10;0.10;;;;;;;;;;6263260;22;20026;-76
2022/12/29 05:11:38;;;;;;;0.10;0.10;;;;;;;;;;6264173;22;20024;-76
2022/12/29 05:14:04;;;;;;;0.20;0.20;;;;;;;;;;6263968;22;20457;-76
2022/12/29 05:16:30;;;;;;;0.10;0.10;;;;;;;;;;6264275;22;20551;-76
2022/12/29 05:18:56;;;;;;;0.10;0.10;;;;;;;;;;6264138;22;20019;-76
2022/12/29 05:21:22;;;;;;;0.10;0.10;;;;;;;;;;6262982;22;20469;-76
2022/12/29 05:23:49;;;;;;;0.10;0.10;;;;;;;;;;6292592;22;20342;-77
2022/12/29 05:26:15;;;;;;;0.10;0.10;;;;;;;;;;6291971;22;20021;-76
2022/12/29 05:28:41;;;;;;;0.10;0.10;;;;;;;;;;6266137;22;20015;-76
2022/12/29 05:31:07;;;;;;;0.10;0.10;;;;;;;;;;6265879;22;20106;-76
2022/12/29 05:33:33;;;;;;;0.20;0.20;;;;;;;;;;6266730;22;20134;-76
2022/12/29 05:36:04;;;;;;;0.10;0.10;;;;;;;;;;6293616;22;20069;-76
2022/12/29 05:38:30;;;;;;;0.10;0.10;;;;;;;;;;6260628;22;20077;-76
2022/12/29 05:40:56;;;;;;;0.10;0.10;;;;;;;;;;6261338;22;20509;-77
2022/12/29 05:43:22;;;;;;;0.10;0.10;;;;;;;;;;6260292;22;20015;-76
2022/12/29 05:45:52;;;;;;;0.10;0.10;;;;;;;;;;6259444;22;20383;-77
2022/12/29 05:48:18;;;;;;;1.55;1.33;;;;;;;;;;6261328;22;20429;-78
2022/12/29 05:50:48;;;;;;;0.10;0.10;;;;;;;;;;6259709;22;20027;-78
2022/12/29 05:53:14;;;;;;;0.10;0.10;;;;;;;;;;6260468;22;20023;-78
2022/12/29 05:55:40;;;;;;;0.10;0.10;;;;;;;;;;6261447;22;20023;-75
2022/12/29 05:58:06;;;;;;;0.10;0.10;;;;;;;;;;6260116;22;20050;-75
2022/12/29 06:00:32;;;;;;;0.10;0.10;;;;;;;;;;6259728;22;20015;-75
2022/12/29 06:02:58;;;;;;;0.10;0.10;;;;;;;;;;6260266;22;20020;-75
2022/12/29 06:05:24;;;;;;;1.88;1.77;;;;;;;;;;6262406;22;20478;-75
2022/12/29 06:07:50;;;;;;;0.10;0.10;;;;;;;;;;6259721;22;20455;-75
2022/12/29 06:10:16;;;;;;;0.10;0.10;;;;;;;;;;6234160;22;20102;-75
2022/12/29 06:12:42;;;;;;;0.10;0.10;;;;;;;;;;6259256;22;20043;-75
2022/12/29 06:15:09;;;;;;;0.10;0.10;;;;;;;;;;6259633;22;20066;-75
2022/12/29 06:17:35;;;;;;;0.10;0.10;;;;;;;;;;6260248;22;20054;-76
2022/12/29 06:20:02;;;;;;;0.10;0.10;;;;;;;;;;6261089;22;20346;-76
2022/12/29 06:22:28;;;;;;;0.10;0.10;;;;;;;;;;6260698;22;20024;-76
2022/12/29 06:24:54;;;;;;;0.10;0.10;;;;;;;;;;6259198;22;20051;-76
2022/12/29 06:27:20;;;;;;;0.10;0.10;;;;;;;;;;6260252;22;20024;-76
2022/12/29 06:29:46;;;;;;;0.10;0.10;;;;;;;;;;6259287;22;20439;-76
2022/12/29 06:32:12;;;;;;;0.10;0.10;;;;;;;;;;6259133;22;20487;-75
2022/12/29 06:34:38;;;;;;;0.10;0.10;;;;;;;;;;6257720;22;20183;-75
2022/12/29 06:37:04;;;;;;;0.10;0.10;;;;;;;;;;6262097;22;20352;-75
2022/12/29 06:39:30;;;;;;;0.10;0.10;;;;;;;;;;6259386;22;20047;-75
2022/12/29 06:41:56;;;;;;;0.10;0.10;;;;;;;;;;6257747;22;20046;-75
2022/12/29 06:44:23;;;;;;;0.10;0.10;;;;;;;;;;6259849;22;20023;-76
2022/12/29 06:46:49;;;;;;;0.10;0.10;;;;;;;;;;6257545;22;20155;-76
2022/12/29 06:49:15;;;;;;;0.10;0.10;;;;;;;;;;6260185;22;20439;-76
2022/12/29 06:51:41;;;;;;;0.10;0.10;;;;;;;;;;6258449;22;20019;-75
2022/12/29 06:54:08;;;;;;;0.10;0.10;;;;;;;;;;6261466;22;20195;-76
2022/12/29 06:56:34;;;;;;;0.10;0.10;;;;;;;;;;6260089;22;20070;-76
2022/12/29 06:59:00;;;;;;;0.10;0.10;;;;;;;;;;6258808;22;20576;-76
2022/12/29 07:01:27;;;;;;;0.10;0.10;;;;;;;;;;6258941;22;20023;-76
2022/12/29 07:03:53;;;;;;;0.40;0.40;;;;;;;;;;6259851;22;20019;-76
2022/12/29 07:06:19;;;;;;;0.10;0.10;;;;;;;;;;6260062;22;20027;-76
2022/12/29 07:08:45;;;;;;;0.10;0.10;;;;;;;;;;6260651;22;20028;-76
2022/12/29 07:11:11;;;;;;;0.45;0.45;;;;;;;;;;6258037;22;20023;-76
2022/12/29 07:13:37;;;;;;;0.10;0.10;;;;;;;;;;6261138;22;20411;-76
2022/12/29 07:16:10;;;;;;;0.10;0.10;;;;;;;;;;6260748;22;20193;-76
2022/12/29 07:18:36;;;;;;;0.10;0.10;;;;;;;;;;6260343;22;20024;-76
2022/12/29 07:21:03;;;;;;;0.10;0.10;;;;;;;;;;6257484;22;20067;-78
2022/12/29 07:23:29;;;;;;;0.10;0.10;;;;;;;;;;6256835;22;20035;-77
2022/12/29 07:26:06;;;;;;;0.10;0.10;;;;;;;;;;6258959;22;20411;-76
2022/12/29 07:28:32;;;;;;;0.10;0.10;;;;;;;;;;6260013;22;20049;-76
2022/12/29 07:30:58;;;;;;;0.10;0.10;;;;;;;;;;6259360;22;20023;-76
2022/12/29 07:33:25;;;;;;;0.10;0.10;;;;;;;;;;6258587;22;20335;-76
2022/12/29 07:35:51;;;;;;;0.10;0.10;;;;;;;;;;6260309;22;20102;-76
2022/12/29 07:38:17;;;;;;;0.10;0.10;;;;;;;;;;6260436;22;20046;-77
2022/12/29 07:40:44;;;;;;;1.20;1.20;;;;;;;;;;6261252;22;20514;-77
2022/12/29 07:43:10;;;;;;;0.10;0.10;;;;;;;;;;6259466;22;20139;-76
2022/12/29 07:45:36;;;;;;;0.10;0.10;;;;;;;;;;6257895;22;20023;-75
2022/12/29 07:48:02;;;;;;;0.10;0.10;;;;;;;;;;6259717;22;20441;-76
2022/12/29 07:50:28;;;;;;;0.75;0.75;;;;;;;;;;6258461;22;20043;-76
2022/12/29 07:52:54;;;;;;;0.10;0.10;;;;;;;;;;6262229;22;20012;-77
2022/12/29 07:55:20;;;;;;;0.10;0.10;;;;;;;;;;6259397;22;20042;-78
2022/12/29 07:57:46;;;;;;;0.10;0.10;;;;;;;;;;6262147;22;20415;-78
2022/12/29 08:00:13;;;;;;;1.27;1.20;;;;;;;;;;6258108;22;20407;-78
2022/12/29 08:02:39;;;;;;;0.15;0.15;;;;;;;;;;6260643;22;20098;-78
2022/12/29 08:05:05;;;;;;;0.20;0.20;;;;;;;;;;6260211;22;20019;-79
2022/12/29 08:07:31;;;;;;;0.10;0.10;;;;;;;;;;6262500;22;20047;-79
2022/12/29 08:09:57;;;;;;;0.10;0.10;;;;;;;;;;6259242;22;20088;-79
2022/12/29 08:12:23;;;;;;;0.10;0.10;;;;;;;;;;6262546;22;20020;-79
2022/12/29 08:14:49;;;;;;;0.10;0.10;;;;;;;;;;6259062;22;20446;-77
2022/12/29 08:17:15;;;;;;;0.10;0.10;;;;;;;;;;6259623;22;20336;-76
2022/12/29 08:19:42;;;;;;;0.10;0.10;;;;;;;;;;6259774;22;20015;-75
2022/12/29 08:22:08;;;;;;;0.10;0.10;;;;;;;;;;6259854;22;20027;-75
2022/12/29 08:24:35;;;;;;;3.58;1.98;;;;;;;;;;6259110;22;20343;-76
2022/12/29 08:27:01;;;;;;;0.10;0.10;;;;;;;;;;6259241;22;20019;-77
2022/12/29 08:29:27;;;;;;;0.10;0.10;;;;;;;;;;6254428;22;20031;-77
2022/12/29 08:31:53;;;;;;;0.10;0.10;;;;;;;;;;6257243;22;20027;-75
2022/12/29 08:34:20;;;;;;;0.10;0.10;;;;;;;;;;6255834;22;20453;-75
2022/12/29 08:36:46;;;;;;;0.45;0.45;;;;;;;;;;6260360;22;20015;-75
2022/12/29 08:39:12;;;;;;;0.17;0.17;;;;;;;;;;6261954;22;20481;-74
2022/12/29 08:41:38;;;;;;;2.20;1.42;;;;;;;;;;6290037;22;20071;-75
2022/12/29 08:44:04;;;;;;;0.10;0.10;;;;;;;;;;6263595;22;20030;-75
2022/12/29 08:46:30;;;;;;;0.10;0.10;;;;;;;;;;6262078;22;20269;-75
2022/12/29 08:48:56;;;;;;;2.10;1.10;;;;;;;;;;6290831;22;20316;-75
2022/12/29 08:51:22;;;;;;;0.10;0.10;;;;;;;;;;6262171;22;20026;-75
2022/12/29 08:53:48;;;;;;;0.10;0.10;;;;;;;;;;6263514;22;20203;-75
2022/12/29 08:56:15;;;;;;;0.10;0.10;;;;;;;;;;6288560;22;20034;-74
2022/12/29 08:58:41;;;;;;;0.10;0.10;;;;;;;;;;6290726;22;20038;-75
2022/12/29 09:01:07;;;;;;;0.10;0.10;;;;;;;;;;6262864;22;20023;-75
2022/12/29 09:03:33;;;;;;;0.10;0.10;;;;;;;;;;6291494;22;20023;-74
2022/12/29 09:05:59;;;;;;;0.10;0.10;;;;;;;;;;6262857;22;20478;-75
2022/12/29 09:08:25;;;;;;;0.30;0.30;;;;;;;;;;6263044;22;20292;-75
2022/12/29 09:10:51;;;;;;;0.10;0.10;;;;;;;;;;6262108;22;20342;-74
2022/12/29 09:13:18;;;;;;;0.10;0.10;;;;;;;;;;6263564;22;20026;-73
2022/12/29 09:15:44;;;;;;;0.10;0.10;;;;;;;;;;6262552;22;20764;-74
2022/12/29 09:18:10;;;;;;;0.10;0.10;;;;;;;;;;6264019;22;20401;-74
2022/12/29 09:20:37;;;;;;;0.10;0.10;;;;;;;;;;6263833;22;20118;-78
2022/12/29 09:23:03;;;;;;;0.10;0.10;;;;;;;;;;6263563;22;20019;-74
2022/12/29 09:25:30;;;;;;;0.10;0.10;;;;;;;;;;6264671;22;20023;-74
2022/12/29 09:27:56;;;;;;;0.50;0.50;;;;;;;;;;6262912;22;20023;-75
2022/12/29 09:30:23;;;;;;;0.10;0.10;;;;;;;;;;6261303;22;20288;-76
2022/12/29 09:32:50;;;;;;;0.10;0.10;;;;;;;;;;6264398;22;20385;-77
2022/12/29 09:35:16;;;;;;;0.10;0.10;;;;;;;;;;6264239;22;20316;-76
2022/12/29 09:37:42;;;;;;;0.10;0.10;;;;;;;;;;6264104;22;20023;-77
2022/12/29 09:40:20;;;;;;;0.10;0.10;;;;;;;;;;6263461;22;20050;-76
2022/12/29 09:42:56;;;;;;;0.57;0.57;;;;;;;;;;6263386;22;20050;-77
2022/12/29 09:45:29;;;;;;;0.10;0.10;;;;;;;;;;6261797;22;20030;-78
2022/12/29 09:47:55;;;;;;;0.10;0.10;;;;;;;;;;6262212;22;20023;-78
2022/12/29 09:50:22;;;;;;;0.10;0.10;;;;;;;;;;6262859;22;20029;-77
2022/12/29 09:52:55;;;;;;;0.17;0.17;;;;;;;;;;6263849;22;20023;-77
2022/12/29 09:55:23;;;;;;;0.10;0.10;;;;;;;;;;6263226;22;20031;-77
2022/12/29 09:57:52;;;;;;;0.30;0.30;;;;;;;;;;6262611;22;20337;-75
2022/12/29 10:00:21;;;;;;;0.10;0.10;;;;;;;;;;6264522;22;20015;-77
2022/12/29 10:02:50;;;;;;;0.47;0.47;;;;;;;;;;6290987;22;20027;-77
2022/12/29 10:05:19;;;;;;;0.38;0.38;;;;;;;;;;6264465;22;20022;-76
2022/12/29 10:07:56;;;;;;;0.10;0.10;;;;;;;;;;6263123;22;20019;-77
2022/12/29 10:10:45;;;;;;;0.10;0.10;;;;;;;;;;6264605;22;20023;-77
2022/12/29 10:13:37;;;;;;;0.10;0.10;;;;;;;;;;6245862;22;20023;-76
2022/12/29 10:16:03;;;;;;;0.10;0.10;;;;;;;;;;6238917;22;20047;-77
2022/12/29 10:18:35;;;;;;;0.10;0.10;;;;;;;;;;6265301;22;20329;-77
2022/12/29 10:21:20;;;;;;;1.20;1.13;;;;;;;;;;6291443;22;20114;-76
2022/12/29 10:23:48;;;;;;;0.10;0.10;;;;;;;;;;6292960;22;20173;-74
2022/12/29 10:26:15;;;;;;;0.10;0.10;;;;;;;;;;6264871;22;20023;-76
2022/12/29 10:29:02;;;;;;;0.20;0.20;;;;;;;;;;6264799;22;20015;-77
2022/12/29 10:31:48;;;;;;;0.15;0.15;;;;;;;;;;6266678;22;20027;-76
2022/12/29 10:34:17;;;;;;;0.10;0.10;;;;;;;;;;6264071;22;20022;-77
2022/12/29 10:36:48;;;;;;;0.10;0.10;;;;;;;;;;6264473;22;20015;-77
2022/12/29 10:39:19;;;;;;;0.30;0.30;;;;;;;;;;6259176;22;20189;-76
2022/12/29 10:41:47;;;;;;;0.10;0.10;;;;;;;;;;6260848;22;20039;-77
2022/12/29 10:44:15;;;;;;;0.10;0.10;;;;;;;;;;6260176;22;20019;-80
2022/12/29 10:46:42;;;;;;;0.10;0.10;;;;;;;;;;6260952;22;20463;-79
2022/12/29 10:49:14;;;;;;;0.22;0.22;;;;;;;;;;6233018;22;20023;-78
2022/12/29 10:51:43;;;;;;;0.10;0.10;;;;;;;;;;6261313;22;20474;-77
2022/12/29 10:54:17;;;;;;;0.10;0.10;;;;;;;;;;6259357;22;20077;-78
2022/12/29 10:56:46;;;;;;;0.10;0.10;;;;;;;;;;6260739;22;20026;-78
2022/12/29 10:59:22;;;;;;;0.10;0.10;;;;;;;;;;6235351;22;20035;-78
2022/12/29 11:01:56;;;;;;;0.10;0.10;;;;;;;;;;6260449;22;20058;-78
2022/12/29 11:04:36;;;;;;;0.10;0.10;;;;;;;;;;6260336;22;20023;-79
2022/12/29 11:07:03;;;;;;;0.10;0.10;;;;;;;;;;6260646;22;20414;-77
2022/12/29 11:09:29;;;;;;;0.10;0.10;;;;;;;;;;6261216;22;20451;-76
2022/12/29 11:11:56;;;;;;;0.10;0.10;;;;;;;;;;6234270;22;20447;-76
2022/12/29 11:14:27;;;;;;;0.10;0.10;;;;;;;;;;6234460;22;20091;-76
2022/12/29 11:17:00;;;;;;;0.00;0.00;;;;;;;;;;6260242;22;20050;-76
2022/12/29 11:19:27;;;;;;;0.73;0.73;;;;;;;;;;6260604;22;20015;-77
2022/12/29 11:21:54;;;;;;;0.10;0.10;;;;;;;;;;6258608;22;20026;-76
2022/12/29 11:24:24;;;;;;;0.10;0.10;;;;;;;;;;6234209;22;20019;-76
2022/12/29 11:26:56;;;;;;;0.10;0.10;;;;;;;;;;6260651;22;20020;-77
2022/12/29 11:29:22;;;;;;;0.10;0.10;;;;;;;;;;6259860;22;20353;-77
2022/12/29 11:32:12;;;;;;;0.10;0.10;;;;;;;;;;6260587;22;20439;-76
2022/12/29 11:34:38;;;;;;;0.13;0.13;;;;;;;;;;6240952;22;20457;-77
2022/12/29 11:37:05;;;;;;;0.30;0.30;;;;;;;;;;6259944;22;20042;-76
2022/12/29 11:39:32;;;;;;;0.10;0.10;;;;;;;;;;6264894;22;20023;-77
2022/12/29 11:41:58;;;;;;;0.17;0.17;;;;;;;;;;6239310;22;20091;-79
2022/12/29 11:44:24;;;;;;;0.25;0.25;;;;;;;;;;6262087;22;20023;-76
2022/12/29 11:46:52;;;;;;;0.10;0.10;;;;;;;;;;6263193;22;20472;-78
2022/12/29 11:49:23;;;;;;;9.90;2.17;;;;;;;;;;6265444;22;20023;-77
2022/12/29 11:51:50;;;;;;;0.00;0.00;;;;;;;;;;6294786;22;20022;-76
2022/12/29 11:54:24;;;;;;;0.10;0.10;;;;;;;;;;6265702;22;20015;-75
2022/12/29 11:56:51;;;;;;;0.10;0.10;;;;;;;;;;6264868;22;20015;-76
2022/12/29 11:59:29;;;;;;;0.20;0.20;;;;;;;;;;6261663;22;20169;-76
2022/12/29 12:01:56;;;;;;;0.10;0.10;;;;;;;;;;6265004;22;20034;-75
2022/12/29 12:04:25;;;;;;;0.10;0.10;;;;;;;;;;6238909;22;20016;-76
2022/12/29 12:06:59;;;;;;;0.10;0.10;;;;;;;;;;6264552;22;20042;-79
2022/12/29 12:09:28;;;;;;;0.10;0.10;;;;;;;;;;6263618;22;20617;-76
2022/12/29 12:11:55;;;;;;;2.55;2.28;;;;;;;;;;6238673;22;20030;-78
2022/12/29 12:14:24;;;;;;;0.10;0.10;;;;;;;;;;6238853;22;20213;-77
2022/12/29 12:16:56;;;;;;;0.10;0.10;;;;;;;;;;6238901;22;20022;-77
2022/12/29 12:19:39;;;;;;;0.10;0.10;;;;;;;;;;6263131;22;20019;-77
2022/12/29 12:22:11;;;;;;;0.10;0.10;;;;;;;;;;6263780;22;20450;-76
2022/12/29 12:24:41;;;;;;;0.10;0.10;;;;;;;;;;6263764;22;20466;-79
2022/12/29 12:27:20;;;;;;;0.10;0.10;;;;;;;;;;6264532;22;20185;-81
2022/12/29 12:29:46;;;;;;;0.28;0.28;;;;;;;;;;6264303;22;20015;-80
2022/12/29 12:32:16;;;;;;;0.60;0.60;;;;;;;;;;6264460;22;20388;-82
2022/12/29 12:34:43;;;;;;;0.10;0.10;;;;;;;;;;6263476;22;20449;-77
2022/12/29 12:37:27;;;;;;;0.20;0.20;;;;;;;;;;6263870;22;20094;-77
2022/12/29 12:40:00;;;;;;;0.90;0.90;;;;;;;;;;6263468;22;20035;-77
2022/12/29 12:42:26;;;;;;;0.10;0.10;;;;;;;;;;6263854;22;20019;-78
2022/12/29 12:45:24;;;;;;;0.10;0.10;;;;;;;;;;6263233;22;20030;-82
2022/12/29 12:47:56;;;;;;;0.10;0.10;;;;;;;;;;6180782;22;20175;-77
2022/12/29 12:50:37;;;;;;;0.10;0.10;;;;;;;;;;6262982;22;20022;-77
2022/12/29 12:53:03;;;;;;;0.77;0.77;;;;;;;;;;6263950;22;20544;-83
2022/12/29 12:55:32;;;;;;;0.10;0.10;;;;;;;;;;6263362;22;20019;-85
2022/12/29 12:57:58;;;;;;;0.10;0.10;;;;;;;;;;6265086;22;20077;-84
2022/12/29 13:00:24;;;;;;;0.10;0.10;;;;;;;;;;6264701;22;20019;-83
2022/12/29 13:02:50;;;;;;;0.10;0.10;;;;;;;;;;6263291;22;20350;-87
2022/12/29 13:05:35;;;;;;;0.10;0.10;;;;;;;;;;6237985;22;20019;-84
2022/12/29 13:08:23;;;;;;;11.30;1.75;;;;;;;;;;6264826;22;20374;-77
2022/12/29 13:11:04;;;;;;;0.10;0.10;;;;;;;;;;6265518;22;20513;-79
2022/12/29 13:13:40;;;;;;;0.10;0.10;;;;;;;;;;6239693;22;20019;-79
2022/12/29 13:16:15;;;;;;;0.10;0.10;;;;;;;;;;6265299;22;20015;-78
2022/12/29 13:18:44;;;;;;;0.10;0.10;;;;;;;;;;6239417;22;20076;-85
2022/12/29 13:21:17;;;;;;;0.05;0.05;;;;;;;;;;6291667;22;20123;-78
2022/12/29 13:23:49;;;;;;;0.10;0.10;;;;;;;;;;6264347;22;20327;-78
2022/12/29 13:26:18;;;;;;;0.10;0.10;;;;;;;;;;6264346;22;20254;-76
2022/12/29 13:28:53;;;;;;;0.10;0.10;;;;;;;;;;6292194;22;20012;-77
2022/12/29 13:31:41;;;;;;;0.10;0.10;;;;;;;;;;6263595;22;20022;-77
2022/12/29 13:34:07;;;;;;;0.10;0.10;;;;;;;;;;6263182;22;20031;-78
2022/12/29 13:36:50;;;;;;;0.10;0.10;;;;;;;;;;6263993;22;20019;-77
2022/12/29 13:39:21;;;;;;;0.10;0.10;;;;;;;;;;6263749;22;20031;-76
2022/12/29 13:41:52;;;;;;;0.10;0.10;;;;;;;;;;6263597;22;20023;-76
2022/12/29 13:44:20;;;;;;;0.10;0.10;;;;;;;;;;6265188;22;20114;-75
2022/12/29 13:46:47;;;;;;;0.10;0.10;;;;;;;;;;6294347;22;20023;-76
2022/12/29 13:49:20;;;;;;;0.10;0.10;;;;;;;;;;6266680;22;20069;-75
2022/12/29 13:51:51;;;;;;;0.30;0.30;;;;;;;;;;6294005;22;20416;-75
2022/12/29 13:54:23;;;;;;;0.10;0.10;;;;;;;;;;6266607;22;20291;-75
2022/12/29 13:56:52;;;;;;;0.10;0.10;;;;;;;;;;6241173;22;20023;-76
2022/12/29 13:59:25;;;;;;;0.10;0.10;;;;;;;;;;6265889;22;20023;-76
2022/12/29 14:01:59;;;;;;;0.10;0.10;;;;;;;;;;6266178;22;20015;-76
2022/12/29 14:04:26;;;;;;;0.10;0.10;;;;;;;;;;6267057;22;20128;-76
2022/12/29 14:07:06;;;;;;;0.10;0.10;;;;;;;;;;6265839;22;20019;-75
2022/12/29 14:09:43;;;;;;;0.10;0.10;;;;;;;;;;6265941;22;20350;-76
2022/12/29 14:12:29;;;;;;;0.10;0.10;;;;;;;;;;6266270;22;20029;-76
2022/12/29 14:14:55;;;;;;;0.10;0.10;;;;;;;;;;6294615;22;20250;-75
2022/12/29 14:17:22;;;;;;;0.10;0.10;;;;;;;;;;6292986;22;20094;-76
2022/12/29 14:19:52;;;;;;;0.10;0.10;;;;;;;;;;6265952;22;20098;-76
2022/12/29 14:22:24;;;;;;;0.10;0.10;;;;;;;;;;6266425;22;20035;-76
2022/12/29 14:24:50;;;;;;;0.10;0.10;;;;;;;;;;6266847;22;20319;-76
2022/12/29 14:27:16;;;;;;;0.10;0.10;;;;;;;;;;6240019;22;20058;-75
2022/12/29 14:29:44;;;;;;;0.10;0.10;;;;;;;;;;6266247;22;20374;-76
2022/12/29 14:32:33;;;;;;;0.10;0.10;;;;;;;;;;6265981;22;20464;-75
2022/12/29 14:35:01;;;;;;;0.10;0.10;;;;;;;;;;6246901;22;20070;-75
2022/12/29 14:37:31;;;;;;;1.00;0.90;;;;;;;;;;6265990;22;20038;-76
2022/12/29 14:40:02;;;;;;;0.10;0.10;;;;;;;;;;6265791;22;20023;-75
2022/12/29 14:42:30;;;;;;;0.10;0.10;;;;;;;;;;6294019;22;20031;-75
2022/12/29 14:45:02;;;;;;;0.10;0.10;;;;;;;;;;6293602;22;20011;-76
2022/12/29 14:47:32;;;;;;;0.10;0.10;;;;;;;;;;6292382;22;20034;-74
2022/12/29 14:50:06;;;;;;;0.10;0.10;;;;;;;;;;6266233;22;20098;-74
2022/12/29 14:52:32;;;;;;;;;;;;;;;;;;6265819;22;20094;-75
2022/12/29 14:55:00;;;;;;;0.10;0.10;;;;;;;;;;6240090;22;19982;-74
2022/12/29 14:57:32;;;;;;;0.10;0.10;;;;;;;;;;6292552;22;20022;-74
2022/12/29 15:00:04;;;;;;;0.10;0.10;;;;;;;;;;6290885;22;20019;-74
2022/12/29 15:02:34;;;;;;;0.10;0.10;;;;;;;;;;6265691;22;20306;-74
2022/12/29 15:05:01;;;;;;;0.10;0.10;;;;;;;;;;6264199;22;20058;-75
2022/12/29 15:07:28;;;;;;;0.10;0.10;;;;;;;;;;6265799;22;20018;-75
2022/12/29 15:09:57;;;;;;;0.10;0.10;;;;;;;;;;6264448;22;20085;-75
2022/12/29 15:12:41;;;;;;;0.10;0.10;;;;;;;;;;6266170;22;20035;-75
2022/12/29 15:15:36;;;;;;;0.10;0.10;;;;;;;;;;6265516;22;20023;-75
2022/12/29 15:18:22;;;;;;;0.10;0.10;;;;;;;;;;6233856;22;20026;-75
2022/12/29 15:20:51;;;;;;;0.10;0.10;;;;;;;;;;6264273;22;20027;-75
2022/12/29 15:23:17;;;;;;;0.10;0.10;;;;;;;;;;6292892;22;20015;-75
2022/12/29 15:26:06;;;;;;;0.10;0.10;;;;;;;;;;6266067;22;20019;-75
2022/12/29 15:28:39;;;;;;;1.05;1.05;;;;;;;;;;6246028;22;20331;-75
2022/12/29 15:31:06;;;;;;;0.10;0.10;;;;;;;;;;6239806;22;20398;-75